createdAt,value
2019-04-28T00:01:11.298Z,5.50
2019-04-28T00:03:58.881Z,5.40
2019-04-28T00:06:46.470Z,5.40
2019-04-28T00:09:34.251Z,5.30
2019-04-28T00:12:22.956Z,5.30
2019-04-28T00:15:10.885Z,5.20
2019-04-28T00:17:58.538Z,5.10
2019-04-28T00:20:56.979Z,5.10
2019-04-28T00:23:51.107Z,5.20
2019-04-28T00:26:46.663Z,5.20
2019-04-28T00:29:40.401Z,5.10
2019-04-28T00:32:23.765Z,5.10
2019-04-28T00:35:11.851Z,5.10
2019-04-28T00:38:01.420Z,5.00
2019-04-28T00:40:48.849Z,5.00
2019-04-28T00:43:36.281Z,4.90
2019-04-28T00:46:27.782Z,5.00
2019-04-28T00:49:16.770Z,5.00
2019-04-28T00:52:04.090Z,5.20
2019-04-28T00:54:52.581Z,5.30
2019-04-28T00:57:41.027Z,5.40
2019-04-28T01:00:31.350Z,5.50
2019-04-28T01:03:19.094Z,5.40
2019-04-28T01:06:06.701Z,5.50
2019-04-28T01:08:54.162Z,5.40
2019-04-28T01:11:41.655Z,5.40
2019-04-28T01:14:30.946Z,5.40
2019-04-28T01:17:23.205Z,5.40
2019-04-28T01:20:19.672Z,5.40
2019-04-28T01:23:07.482Z,5.30
2019-04-28T01:25:55.170Z,5.30
2019-04-28T01:28:42.818Z,5.30
2019-04-28T01:31:32.125Z,5.30
2019-04-28T01:34:21.139Z,5.20
2019-04-28T01:37:09.709Z,5.10
2019-04-28T01:39:59.550Z,5.00
2019-04-28T01:42:46.681Z,5.00
2019-04-28T01:45:34.110Z,4.90
2019-04-28T01:48:21.557Z,4.90
2019-04-28T01:51:09.568Z,4.90
2019-04-28T01:53:57.183Z,4.90
2019-04-28T01:56:44.864Z,4.90
2019-04-28T01:59:32.481Z,4.90
2019-04-28T02:02:20.117Z,4.90
2019-04-28T02:05:09.691Z,4.90
2019-04-28T02:07:57.145Z,4.70
2019-04-28T02:10:44.751Z,4.70
2019-04-28T02:13:32.409Z,4.70
2019-04-28T02:16:19.970Z,4.90
2019-04-28T02:19:07.725Z,4.90
2019-04-28T02:22:03.005Z,5.00
2019-04-28T02:24:50.582Z,5.10
2019-04-28T02:27:39.919Z,5.10
2019-04-28T02:30:44.078Z,5.10
2019-04-28T02:33:16.561Z,5.20
2019-04-28T02:36:03.946Z,5.20
2019-04-28T02:38:51.558Z,5.20
2019-04-28T02:41:41.111Z,5.20
2019-04-28T02:44:34.140Z,5.20
2019-04-28T02:47:18.123Z,5.20
2019-04-28T02:50:11.365Z,5.30
2019-04-28T02:53:03.001Z,5.30
2019-04-28T02:55:51.463Z,5.30
2019-04-28T02:58:41.515Z,5.20
2019-04-28T03:01:30.810Z,5.20
2019-04-28T03:04:20.290Z,5.10
2019-04-28T03:07:07.827Z,5.00
2019-04-28T03:09:55.503Z,5.00
2019-04-28T03:12:42.900Z,5.10
2019-04-28T03:15:30.751Z,5.00
2019-04-28T03:18:21.228Z,5.00
2019-04-28T03:21:08.167Z,5.00
2019-04-28T03:23:55.538Z,5.00
2019-04-28T03:26:53.735Z,5.00
2019-04-28T03:29:52.627Z,4.90
2019-04-28T03:32:52.223Z,5.00
2019-04-28T03:35:32.811Z,4.90
2019-04-28T03:38:21.343Z,4.70
2019-04-28T03:41:11.173Z,4.50
2019-04-28T03:44:00.454Z,4.30
2019-04-28T03:46:51.158Z,4.10
2019-04-28T03:49:42.717Z,4.00
2019-04-28T03:52:28.638Z,3.90
2019-04-28T03:55:16.285Z,4.00
2019-04-28T03:58:03.741Z,4.10
2019-04-28T04:00:51.170Z,4.10
2019-04-28T04:03:41.476Z,4.10
2019-04-28T04:06:30.936Z,4.00
2019-04-28T04:09:17.518Z,4.10
2019-04-28T04:12:06.513Z,4.00
2019-04-28T04:14:55.881Z,4.00
2019-04-28T04:18:01.730Z,3.90
2019-04-28T04:20:51.245Z,3.90
2019-04-28T04:23:41.044Z,3.80
2019-04-28T04:26:32.888Z,3.90
2019-04-28T04:29:18.007Z,4.00
2019-04-28T04:32:15.697Z,3.90
2019-04-28T04:34:55.058Z,3.90
2019-04-28T04:37:42.566Z,4.10
2019-04-28T04:40:31.822Z,4.20
2019-04-28T04:43:21.078Z,4.50
2019-04-28T04:46:14.566Z,4.70
2019-04-28T04:49:02.016Z,6.70
2019-04-28T04:51:50.923Z,4.80
2019-04-28T04:54:40.145Z,4.80
2019-04-28T04:57:27.678Z,4.70
2019-04-28T05:00:23.845Z,4.50
2019-04-28T05:03:12.905Z,4.40
2019-04-28T05:06:00.448Z,4.20
2019-04-28T05:08:49.821Z,4.20
2019-04-28T05:11:39.820Z,4.30
2019-04-28T05:14:29.811Z,4.50
2019-04-28T05:17:17.685Z,4.90
2019-04-28T05:20:06.705Z,5.40
2019-04-28T05:22:55.690Z,5.60
2019-04-28T05:25:44.094Z,5.70
2019-04-28T05:28:36.471Z,5.60
2019-04-28T05:31:24.296Z,5.60
2019-04-28T05:34:11.611Z,5.50
2019-04-28T05:37:00.718Z,5.30
2019-04-28T05:39:49.712Z,5.30
2019-04-28T05:42:39.494Z,5.40
2019-04-28T05:45:32.120Z,5.50
2019-04-28T05:48:21.779Z,5.80
2019-04-28T05:51:11.009Z,6.20
2019-04-28T05:54:00.312Z,6.30
2019-04-28T05:56:59.690Z,6.50
2019-04-28T06:00:03.477Z,6.70
2019-04-28T06:02:56.433Z,6.80
2019-04-28T06:05:41.230Z,6.90
2019-04-28T06:08:36.272Z,7.00
2019-04-28T06:11:39.647Z,7.20
2019-04-28T06:14:26.660Z,7.40
2019-04-28T06:17:14.109Z,7.60
2019-04-28T06:20:01.760Z,7.60
2019-04-28T06:22:49.447Z,7.70
2019-04-28T06:25:37.656Z,8.00
2019-04-28T06:28:25.379Z,8.20
2019-04-28T06:31:13.156Z,8.50
2019-04-28T06:34:00.778Z,8.80
2019-04-28T06:36:48.398Z,9.30
2019-04-28T06:39:36.213Z,10.00
2019-04-28T06:42:23.661Z,10.30
2019-04-28T06:45:11.389Z,10.60
2019-04-28T06:47:58.769Z,10.40
2019-04-28T06:50:46.525Z,10.30
2019-04-28T06:53:33.936Z,10.00
2019-04-28T06:56:21.351Z,10.00
2019-04-28T06:59:09.068Z,9.70
2019-04-28T07:01:56.602Z,9.70
2019-04-28T07:04:43.988Z,9.90
2019-04-28T07:07:31.611Z,10.30
2019-04-28T07:10:19.443Z,10.80
2019-04-28T07:13:07.213Z,11.00
2019-04-28T07:15:54.797Z,10.90
2019-04-28T07:18:42.224Z,10.70
2019-04-28T07:21:31.251Z,10.60
2019-04-28T07:24:18.855Z,10.40
2019-04-28T07:27:07.593Z,10.30
2019-04-28T07:29:55.397Z,10.20
2019-04-28T07:32:42.877Z,10.40
2019-04-28T07:35:30.509Z,10.60
2019-04-28T07:38:18.164Z,10.80
2019-04-28T07:41:05.921Z,11.00
2019-04-28T07:43:53.659Z,11.00
2019-04-28T07:46:41.130Z,10.90
2019-04-28T07:49:28.631Z,10.90
2019-04-28T07:52:18.008Z,11.10
2019-04-28T07:55:07.065Z,11.30
2019-04-28T07:57:54.455Z,11.60
2019-04-28T08:00:42.110Z,11.60
2019-04-28T08:03:29.869Z,11.70
2019-04-28T08:06:17.545Z,12.00
2019-04-28T08:09:08.591Z,12.10
2019-04-28T08:11:56.144Z,12.20
2019-04-28T08:14:43.943Z,12.20
2019-04-28T08:17:37.401Z,12.00
2019-04-28T08:20:25.149Z,12.00
2019-04-28T08:23:12.572Z,12.00
2019-04-28T08:26:00.205Z,12.00
2019-04-28T08:28:47.605Z,12.10
2019-04-28T08:31:55.130Z,12.10
2019-04-28T08:34:42.613Z,12.00
2019-04-28T08:37:30.279Z,11.80
2019-04-28T08:40:17.965Z,11.40
2019-04-28T08:46:03.833Z,10.90
2019-04-28T08:48:51.525Z,10.90
2019-04-28T08:51:39.182Z,10.80
2019-04-28T08:54:26.655Z,10.90
2019-04-28T08:57:14.362Z,11.20
2019-04-28T09:00:02.110Z,11.80
2019-04-28T09:02:50.099Z,12.10
2019-04-28T09:05:37.621Z,12.20
2019-04-28T09:08:25.229Z,11.80
2019-04-28T09:11:12.590Z,11.80
2019-04-28T09:14:00.442Z,11.50
2019-04-28T09:16:47.901Z,11.20
2019-04-28T09:19:35.273Z,10.70
2019-04-28T09:22:23.001Z,10.70
2019-04-28T09:25:10.605Z,10.90
2019-04-28T09:27:58.063Z,11.50
2019-04-28T09:30:46.141Z,11.40
2019-04-28T09:33:33.848Z,11.50
2019-04-28T09:36:21.469Z,11.80
2019-04-28T09:39:10.697Z,12.20
2019-04-28T09:42:16.169Z,12.50
2019-04-28T09:45:22.165Z,12.90
2019-04-28T09:48:09.650Z,13.40
2019-04-28T09:50:57.433Z,13.40
2019-04-28T09:53:44.961Z,13.50
2019-04-28T09:56:32.462Z,13.90
2019-04-28T09:59:20.214Z,14.20
2019-04-28T10:02:07.518Z,14.20
2019-04-28T10:04:55.078Z,13.80
2019-04-28T10:07:42.444Z,13.40
2019-04-28T10:10:30.246Z,13.10
2019-04-28T10:13:17.851Z,13.00
2019-04-28T10:16:05.614Z,12.90
2019-04-28T10:18:53.101Z,13.10
2019-04-28T10:21:40.710Z,13.10
2019-04-28T10:24:28.363Z,12.90
2019-04-28T10:27:15.714Z,12.70
2019-04-28T10:30:05.428Z,12.70
2019-04-28T10:32:58.611Z,12.80
2019-04-28T10:38:55.461Z,13.30
2019-04-28T10:41:43.322Z,13.40
2019-04-28T10:44:32.577Z,13.60
2019-04-28T10:47:20.704Z,13.60
2019-04-28T10:50:08.658Z,13.80
2019-04-28T10:52:56.005Z,13.90
2019-04-28T10:55:43.599Z,14.00
2019-04-28T10:58:31.213Z,13.90
2019-04-28T11:01:18.817Z,13.90
2019-04-28T11:04:24.020Z,14.10
2019-04-28T11:07:17.592Z,14.40
2019-04-28T11:10:08.874Z,14.30
2019-04-28T11:12:56.361Z,14.20
2019-04-28T11:15:51.304Z,14.10
2019-04-28T11:18:40.669Z,14.20
2019-04-28T11:21:28.598Z,14.30
2019-04-28T11:24:16.360Z,14.60
2019-04-28T11:27:04.318Z,14.70
2019-04-28T11:29:52.238Z,14.70
2019-04-28T11:32:41.477Z,14.40
2019-04-28T11:35:36.598Z,14.10
2019-04-28T11:38:24.711Z,13.90
2019-04-28T11:41:12.761Z,14.00
2019-04-28T11:44:00.739Z,14.00
2019-04-28T11:46:49.378Z,14.20
2019-04-28T11:49:36.844Z,14.40
2019-04-28T11:52:24.518Z,14.60
2019-04-28T11:55:12.700Z,14.70
2019-04-28T11:58:00.233Z,14.90
2019-04-28T12:00:48.126Z,15.00
2019-04-28T12:03:35.821Z,15.10
2019-04-28T12:06:23.582Z,14.80
2019-04-28T12:10:03.534Z,14.50
2019-04-28T12:12:30.919Z,14.30
2019-04-28T12:15:25.689Z,14.60
2019-04-28T12:18:21.013Z,14.70
2019-04-28T12:21:08.488Z,15.00
2019-04-28T12:23:58.973Z,15.50
2019-04-28T12:26:49.141Z,15.80
2019-04-28T12:29:37.791Z,16.30
2019-04-28T12:32:37.592Z,16.50
2019-04-28T12:35:33.232Z,16.60
2019-04-28T12:38:35.988Z,16.10
2019-04-28T12:41:25.207Z,15.90
2019-04-28T12:44:20.775Z,15.80
2019-04-28T12:47:13.623Z,16.10
2019-04-28T12:50:24.346Z,16.20
2019-04-28T12:56:36.217Z,15.70
2019-04-28T12:59:44.938Z,15.60
2019-04-28T13:02:58.338Z,15.40
2019-04-28T13:06:00.238Z,15.30
2019-04-28T13:08:37.536Z,14.90
2019-04-28T13:11:24.862Z,14.40
2019-04-28T13:14:26.906Z,14.00
2019-04-28T13:17:16.963Z,13.30
2019-04-28T13:20:06.556Z,13.10
2019-04-28T13:22:54.222Z,12.80
2019-04-28T13:25:41.933Z,12.90
2019-04-28T13:28:29.382Z,13.20
2019-04-28T13:31:17.228Z,13.30
2019-04-28T13:34:06.607Z,13.40
2019-04-28T13:36:53.907Z,13.50
2019-04-28T13:39:55.128Z,13.50
2019-04-28T13:42:43.030Z,13.80
2019-04-28T13:45:30.828Z,14.10
2019-04-28T13:48:18.398Z,14.20
2019-04-28T13:51:06.189Z,14.30
2019-04-28T13:53:53.815Z,14.50
2019-04-28T13:56:41.452Z,14.40
2019-04-28T13:59:29.105Z,14.40
2019-04-28T14:02:18.749Z,14.50
2019-04-28T14:05:19.945Z,14.60
2019-04-28T14:08:07.838Z,14.80
2019-04-28T14:10:55.534Z,15.10
2019-04-28T14:13:43.463Z,15.10
2019-04-28T14:16:30.776Z,14.70
2019-04-28T14:19:18.458Z,13.90
2019-04-28T14:22:06.041Z,13.50
2019-04-28T14:24:54.194Z,13.60
2019-04-28T14:27:41.742Z,13.90
2019-04-28T14:30:29.499Z,13.80
2019-04-28T14:33:17.325Z,13.80
2019-04-28T14:36:04.806Z,13.70
2019-04-28T14:38:52.544Z,13.60
2019-04-28T14:41:39.917Z,13.40
2019-04-28T14:44:27.571Z,13.40
2019-04-28T14:47:15.369Z,13.40
2019-04-28T14:50:03.088Z,13.40
2019-04-28T14:52:50.802Z,13.20
2019-04-28T14:55:38.736Z,13.00
2019-04-28T14:58:26.393Z,13.00
2019-04-28T15:01:31.772Z,12.80
2019-04-28T15:04:21.218Z,12.80
2019-04-28T15:07:13.961Z,13.50
2019-04-28T15:10:03.132Z,13.60
2019-04-28T15:12:50.867Z,13.90
2019-04-28T15:15:38.535Z,14.10
2019-04-28T15:18:26.136Z,14.20
2019-04-28T15:21:13.861Z,14.20
2019-04-28T15:24:01.612Z,14.00
2019-04-28T15:26:49.015Z,13.70
2019-04-28T15:29:36.426Z,13.50
2019-04-28T15:32:23.894Z,13.50
2019-04-28T15:35:11.643Z,13.60
2019-04-28T15:37:59.270Z,13.90
2019-04-28T15:40:46.698Z,13.90
2019-04-28T15:43:34.703Z,13.90
2019-04-28T15:46:22.233Z,13.70
2019-04-28T15:49:09.569Z,13.70
2019-04-28T15:51:57.065Z,13.70
2019-04-28T15:54:44.414Z,13.70
2019-04-28T15:57:32.080Z,13.70
2019-04-28T16:00:19.841Z,13.70
2019-04-28T16:03:07.309Z,14.00
2019-04-28T16:05:54.745Z,14.20
2019-04-28T16:08:42.092Z,14.30
2019-04-28T16:11:29.545Z,14.10
2019-04-28T16:14:17.070Z,13.90
2019-04-28T16:17:04.821Z,13.50
2019-04-28T16:19:52.469Z,13.40
2019-04-28T16:22:40.216Z,13.30
2019-04-28T16:25:27.616Z,13.10
2019-04-28T16:28:15.301Z,13.00
2019-04-28T16:31:02.838Z,12.90
2019-04-28T16:33:50.376Z,12.90
2019-04-28T16:36:37.842Z,12.90
2019-04-28T16:39:25.590Z,12.80
2019-04-28T16:42:12.966Z,12.80
2019-04-28T16:45:00.459Z,12.80
2019-04-28T16:47:48.106Z,12.80
2019-04-28T16:50:35.713Z,12.80
2019-04-28T16:53:23.473Z,12.70
2019-04-28T16:56:15.513Z,12.70
2019-04-28T16:59:27.975Z,12.70
2019-04-28T17:02:33.277Z,12.50
2019-04-28T17:08:51.497Z,12.30
2019-04-28T17:14:49.531Z,12.20
2019-04-28T17:17:51.940Z,12.10
2019-04-28T17:20:35.488Z,12.10
2019-04-28T17:23:23.671Z,12.10
2019-04-28T17:26:11.500Z,12.10
2019-04-28T17:28:59.181Z,12.00
2019-04-28T17:31:46.513Z,12.00
2019-04-28T17:34:33.998Z,12.00
2019-04-28T17:37:21.941Z,12.10
2019-04-28T17:40:09.820Z,12.10
2019-04-28T17:42:57.283Z,12.10
2019-04-28T17:45:45.011Z,12.20
2019-04-28T17:48:34.592Z,12.10
2019-04-28T17:51:22.080Z,12.10
2019-04-28T17:54:10.083Z,12.20
2019-04-28T17:57:02.408Z,12.10
2019-04-28T17:59:51.893Z,12.10
2019-04-28T18:02:53.340Z,12.00
2019-04-28T18:05:42.970Z,12.00
2019-04-28T18:08:31.716Z,12.00
2019-04-28T18:11:19.685Z,12.10
2019-04-28T18:14:09.804Z,12.10
2019-04-28T18:17:05.905Z,11.80
2019-04-28T18:19:54.353Z,11.80
2019-04-28T18:22:42.418Z,11.60
2019-04-28T18:25:30.187Z,11.40
2019-04-28T18:28:17.703Z,11.00
2019-04-28T18:31:11.783Z,10.80
2019-04-28T18:34:16.855Z,10.50
2019-04-28T18:37:09.885Z,9.90
2019-04-28T18:40:11.128Z,9.90
2019-04-28T18:43:02.199Z,9.70
2019-04-28T18:45:53.103Z,9.50
2019-04-28T18:48:40.849Z,9.30
2019-04-28T18:51:28.273Z,9.10
2019-04-28T18:54:15.942Z,9.00
2019-04-28T18:57:03.581Z,8.70
2019-04-28T18:59:51.248Z,8.70
2019-04-28T19:02:43.597Z,8.60
2019-04-28T19:05:32.869Z,8.50
2019-04-28T19:08:25.081Z,8.40
2019-04-28T19:11:14.584Z,8.30
2019-04-28T19:14:03.858Z,8.20
2019-04-28T19:20:08.998Z,7.80
2019-04-28T19:22:56.573Z,7.70
2019-04-28T19:25:44.223Z,7.70
2019-04-28T19:28:32.011Z,7.50
2019-04-28T19:31:19.907Z,7.50
2019-04-28T19:34:07.354Z,7.40
2019-04-28T19:36:54.786Z,7.20
2019-04-28T19:39:42.706Z,7.20
2019-04-28T19:42:30.373Z,7.30
2019-04-28T19:45:19.334Z,7.20
2019-04-28T19:48:07.097Z,7.10
2019-04-28T19:50:57.499Z,7.10
2019-04-28T19:53:45.515Z,7.00
2019-04-28T19:56:40.694Z,6.90
2019-04-28T19:59:34.938Z,6.90
2019-04-28T20:02:22.603Z,6.80
2019-04-28T20:05:10.419Z,6.80
2019-04-28T20:07:57.890Z,6.70
2019-04-28T20:10:45.335Z,6.50
2019-04-28T20:13:33.123Z,6.40
2019-04-28T20:16:23.806Z,6.30
2019-04-28T20:19:11.200Z,6.30
2019-04-28T20:21:58.738Z,6.30
2019-04-28T20:24:47.159Z,6.40
2019-04-28T20:27:35.726Z,6.30
2019-04-28T20:30:23.482Z,6.30
2019-04-28T20:33:11.221Z,6.20
2019-04-28T20:36:19.522Z,6.10
2019-04-28T20:39:31.208Z,6.00
2019-04-28T20:48:42.850Z,6.10
2019-04-28T20:51:30.481Z,6.10
2019-04-28T20:54:18.205Z,6.00
2019-04-28T20:57:06.409Z,5.70
2019-04-28T20:59:53.909Z,5.70
2019-04-28T21:02:41.699Z,5.80
2019-04-28T21:05:29.410Z,5.70
2019-04-28T21:08:18.969Z,5.70
2019-04-28T21:11:06.542Z,5.70
2019-04-28T21:13:54.132Z,5.70
2019-04-28T21:16:44.870Z,5.60
2019-04-28T21:19:32.697Z,5.40
2019-04-28T21:22:20.499Z,5.30
2019-04-28T21:25:09.613Z,5.40
2019-04-28T21:27:56.990Z,5.40
2019-04-28T21:30:44.821Z,5.40
2019-04-28T21:33:32.660Z,5.40
2019-04-28T21:36:20.272Z,5.30
2019-04-28T21:39:08.853Z,5.10
2019-04-28T21:41:58.490Z,4.90
2019-04-28T21:44:50.054Z,4.70
2019-04-28T21:47:46.067Z,4.50
2019-04-28T21:50:33.360Z,4.50
2019-04-28T21:53:21.225Z,4.40
2019-04-28T21:56:08.974Z,4.30
2019-04-28T21:58:56.589Z,4.30
2019-04-28T22:01:44.155Z,4.60
2019-04-28T22:04:31.621Z,4.60
2019-04-28T22:07:19.311Z,4.70
2019-04-28T22:10:07.794Z,4.80
2019-04-28T22:12:55.182Z,4.90
2019-04-28T22:15:42.546Z,4.90
2019-04-28T22:18:29.960Z,4.70
2019-04-28T22:21:17.634Z,4.40
2019-04-28T22:24:06.895Z,4.30
2019-04-28T22:26:55.034Z,4.10
2019-04-28T22:29:42.643Z,4.10
2019-04-28T22:32:29.977Z,4.10
2019-04-28T22:35:17.841Z,4.20
2019-04-28T22:38:05.469Z,4.20
2019-04-28T22:40:53.082Z,4.20
2019-04-28T22:43:40.745Z,4.10
2019-04-28T22:46:28.253Z,4.10
2019-04-28T22:49:15.985Z,4.20
2019-04-28T22:52:03.774Z,4.20
2019-04-28T22:54:53.100Z,4.30
2019-04-28T22:57:51.234Z,4.40
2019-04-28T23:00:43.246Z,4.40
2019-04-28T23:03:32.310Z,4.40
2019-04-28T23:06:20.064Z,4.30
2019-04-28T23:09:11.168Z,4.20
2019-04-28T23:11:58.866Z,4.10
2019-04-28T23:14:46.280Z,4.30
2019-04-28T23:17:33.942Z,4.20
2019-04-28T23:20:22.878Z,4.20
2019-04-28T23:23:11.482Z,4.20
2019-04-28T23:25:59.139Z,4.10
2019-04-28T23:28:46.785Z,4.00
2019-04-28T23:31:34.205Z,4.00
2019-04-28T23:34:22.210Z,4.00
2019-04-28T23:37:09.651Z,5.90
2019-04-28T23:39:57.254Z,3.80
2019-04-28T23:42:46.610Z,3.70
2019-04-28T23:45:34.496Z,3.60
2019-04-28T23:48:21.905Z,3.70
2019-04-28T23:51:14.253Z,3.70
2019-04-28T23:54:03.337Z,3.60
2019-04-28T23:56:51.197Z,3.50
2019-04-28T23:59:38.942Z,3.40
